Max Meadows, Virginia
Current Conditions -  °F | °C
As of 2:15 AM on Thursday 23 Oct 2014 (Local Time) from KHLX Reporting Station
Overcast Overcast  
Wind Chill: 36°   Ceiling: 1900
Heat Index: 43°   Visibility: 10mi
Dew Point: 38°   Wind: 14mph
Humidity: 82%   Direction: 330°NNW
Pressure: 30.09"   Gusts: 20mph
Location:  36.97°N, 80.95°W
Report Text: KHLX 230615Z AUTO 33012G17KT 10SM OVC019 06/03 A3009 RMK AO2 T00600031
Loading
Personal Weather Stations






























Interactive Weather Map
Tropical Storm Tracking
New forecast layout! Learn more

10-Day Weather Forecast

Advertisements
Track Severe Weather on mobile